createdAt,value
2018-12-10T00:00:13.153Z,0.00
2018-12-10T00:01:13.337Z,0.00
2018-12-10T00:02:13.519Z,0.00
2018-12-10T00:03:13.701Z,0.00
2018-12-10T00:04:13.878Z,0.00
2018-12-10T00:05:14.064Z,0.00
2018-12-10T00:06:14.246Z,0.00
2018-12-10T00:07:14.436Z,0.00
2018-12-10T00:08:14.615Z,0.00
2018-12-10T00:09:14.799Z,0.00
2018-12-10T00:10:14.979Z,0.00
2018-12-10T00:11:15.166Z,0.00
2018-12-10T00:12:15.355Z,0.00
2018-12-10T00:13:15.538Z,0.00
2018-12-10T00:14:15.725Z,0.00
2018-12-10T00:15:15.905Z,0.00
2018-12-10T00:16:16.094Z,0.00
2018-12-10T00:17:16.281Z,0.00
2018-12-10T00:18:16.466Z,0.00
2018-12-10T00:19:16.648Z,0.00
2018-12-10T00:20:16.830Z,0.00
2018-12-10T00:21:17.020Z,0.00
2018-12-10T00:22:17.197Z,0.00
2018-12-10T00:23:17.388Z,0.00
2018-12-10T00:24:17.574Z,0.00
2018-12-10T00:25:17.766Z,0.00
2018-12-10T00:26:17.949Z,0.00
2018-12-10T00:27:18.128Z,0.00
2018-12-10T00:28:18.322Z,0.00
2018-12-10T00:29:18.513Z,0.00
2018-12-10T00:30:18.693Z,0.00
2018-12-10T00:31:18.876Z,0.00
2018-12-10T00:32:19.058Z,0.00
2018-12-10T00:33:19.251Z,0.00
2018-12-10T00:34:19.433Z,0.00
2018-12-10T00:35:19.612Z,0.00
2018-12-10T00:36:19.796Z,0.00
2018-12-10T00:37:20.053Z,0.00
2018-12-10T00:38:20.158Z,0.00
2018-12-10T00:39:20.469Z,0.00
2018-12-10T00:40:20.522Z,0.00
2018-12-10T00:41:20.707Z,0.00
2018-12-10T00:42:20.902Z,0.00
2018-12-10T00:43:21.175Z,0.00
2018-12-10T00:44:21.256Z,0.00
2018-12-10T00:45:21.445Z,0.00
2018-12-10T00:46:22.618Z,0.00
2018-12-10T00:47:21.809Z,0.00
2018-12-10T00:48:21.995Z,0.00
2018-12-10T00:49:22.175Z,0.00
2018-12-10T00:50:22.357Z,0.00
2018-12-10T00:51:22.539Z,0.00
2018-12-10T00:52:22.727Z,0.00
2018-12-10T00:53:22.907Z,0.00
2018-12-10T00:54:23.087Z,0.00
2018-12-10T00:55:23.278Z,0.00
2018-12-10T00:56:23.455Z,0.00
2018-12-10T00:57:23.638Z,0.00
2018-12-10T00:58:23.824Z,0.00
2018-12-10T00:59:24.000Z,0.00
2018-12-10T01:00:24.184Z,0.00
2018-12-10T01:01:24.366Z,0.00
2018-12-10T01:02:24.549Z,0.00
2018-12-10T01:03:24.730Z,0.00
2018-12-10T01:04:24.908Z,0.00
2018-12-10T01:05:25.092Z,0.00
2018-12-10T01:06:25.271Z,0.00
2018-12-10T01:07:25.456Z,0.00
2018-12-10T01:08:25.638Z,0.00
2018-12-10T01:09:25.818Z,0.00
2018-12-10T01:10:26.004Z,0.00
2018-12-10T01:11:26.188Z,0.00
2018-12-10T01:12:26.366Z,0.00
2018-12-10T01:13:26.549Z,0.00
2018-12-10T01:14:26.728Z,0.00
2018-12-10T01:15:26.917Z,0.00
2018-12-10T01:16:27.111Z,0.00
2018-12-10T01:17:27.292Z,0.00
2018-12-10T01:18:27.479Z,0.00
2018-12-10T01:19:27.656Z,0.00
2018-12-10T01:20:27.833Z,0.00
2018-12-10T01:21:28.016Z,0.00
2018-12-10T01:22:28.204Z,0.00
2018-12-10T01:23:28.387Z,0.00
2018-12-10T01:24:28.568Z,0.00
2018-12-10T01:25:28.748Z,0.00
2018-12-10T01:26:28.929Z,0.00
2018-12-10T01:27:29.111Z,0.00
2018-12-10T01:28:29.304Z,0.00
2018-12-10T01:29:29.477Z,0.00
2018-12-10T01:30:29.664Z,0.00
2018-12-10T01:31:29.842Z,0.00
2018-12-10T01:32:30.018Z,0.00
2018-12-10T01:33:30.204Z,0.00
2018-12-10T01:34:30.388Z,0.00
2018-12-10T01:35:30.583Z,0.00
2018-12-10T01:36:30.761Z,0.00
2018-12-10T01:37:30.944Z,0.00
2018-12-10T01:38:31.117Z,0.00
2018-12-10T01:39:31.302Z,0.00
2018-12-10T01:40:31.480Z,0.00
2018-12-10T01:41:31.660Z,0.00
2018-12-10T01:42:31.842Z,0.00
2018-12-10T01:43:32.025Z,0.00
2018-12-10T01:44:32.208Z,0.00
2018-12-10T01:45:32.389Z,0.00
2018-12-10T01:46:32.571Z,0.00
2018-12-10T01:47:32.756Z,0.00
2018-12-10T01:48:32.934Z,0.00
2018-12-10T01:49:33.116Z,0.00
2018-12-10T01:50:33.303Z,0.00
2018-12-10T01:51:33.482Z,0.00
2018-12-10T01:52:33.672Z,0.00
2018-12-10T01:53:33.845Z,0.00
2018-12-10T01:54:34.031Z,0.00
2018-12-10T01:55:34.208Z,0.00
2018-12-10T01:56:34.397Z,0.00
2018-12-10T01:57:34.576Z,0.00
2018-12-10T01:58:34.760Z,0.00
2018-12-10T01:59:34.940Z,0.00
2018-12-10T02:00:35.124Z,0.00
2018-12-10T02:01:35.303Z,0.00
2018-12-10T02:02:35.487Z,0.00
2018-12-10T02:03:35.665Z,0.00
2018-12-10T02:04:35.849Z,0.00
2018-12-10T02:05:36.028Z,0.00
2018-12-10T02:06:36.204Z,0.00
2018-12-10T02:07:36.389Z,0.00
2018-12-10T02:08:36.577Z,0.00
2018-12-10T02:09:36.753Z,0.00
2018-12-10T02:10:36.938Z,0.00
2018-12-10T02:11:37.133Z,0.00
2018-12-10T02:12:37.313Z,0.00
2018-12-10T02:13:37.510Z,0.00
2018-12-10T02:14:37.682Z,0.00
2018-12-10T02:15:37.856Z,0.00
2018-12-10T02:16:38.036Z,0.00
2018-12-10T02:17:38.214Z,0.00
2018-12-10T02:18:38.398Z,0.00
2018-12-10T02:19:38.584Z,0.00
2018-12-10T02:20:38.762Z,0.00
2018-12-10T02:21:38.945Z,0.00
2018-12-10T02:22:39.126Z,0.00
2018-12-10T02:23:39.308Z,0.00
2018-12-10T02:24:39.488Z,0.00
2018-12-10T02:25:39.685Z,0.00
2018-12-10T02:26:39.870Z,0.00
2018-12-10T02:27:40.051Z,0.00
2018-12-10T02:28:40.233Z,0.00
2018-12-10T02:29:40.413Z,0.00
2018-12-10T02:30:40.595Z,0.00
2018-12-10T02:31:40.786Z,0.00
2018-12-10T02:32:40.962Z,0.00
2018-12-10T02:33:41.150Z,0.00
2018-12-10T02:34:41.331Z,0.00
2018-12-10T02:35:41.530Z,0.00
2018-12-10T02:36:41.719Z,0.00
2018-12-10T02:37:41.896Z,0.00
2018-12-10T02:38:42.080Z,0.00
2018-12-10T02:39:42.263Z,0.00
2018-12-10T02:40:42.443Z,0.00
2018-12-10T02:41:42.625Z,0.00
2018-12-10T02:42:42.805Z,0.00
2018-12-10T02:43:42.990Z,0.00
2018-12-10T02:44:43.176Z,0.00
2018-12-10T02:45:43.356Z,0.00
2018-12-10T02:46:43.533Z,0.00
2018-12-10T02:47:43.718Z,0.00
2018-12-10T02:48:43.901Z,0.00
2018-12-10T02:49:44.085Z,0.00
2018-12-10T02:50:44.266Z,0.00
2018-12-10T02:51:44.446Z,0.00
2018-12-10T02:52:44.625Z,0.00
2018-12-10T02:53:44.809Z,0.00
2018-12-10T02:54:45.004Z,0.00
2018-12-10T02:55:45.168Z,0.00
2018-12-10T02:56:45.349Z,0.00
2018-12-10T02:57:45.534Z,0.00
2018-12-10T02:58:45.712Z,0.00
2018-12-10T02:59:45.894Z,0.00
2018-12-10T03:00:46.073Z,0.00
2018-12-10T03:01:46.255Z,0.00
2018-12-10T03:02:46.483Z,0.00
2018-12-10T03:03:46.616Z,0.00
2018-12-10T03:04:46.799Z,0.00
2018-12-10T03:05:46.977Z,0.00
2018-12-10T03:06:47.157Z,0.00
2018-12-10T03:07:47.346Z,0.00
2018-12-10T03:08:47.534Z,0.00
2018-12-10T03:09:47.712Z,0.00
2018-12-10T03:10:47.886Z,0.00
2018-12-10T03:11:48.073Z,0.00
2018-12-10T03:12:48.252Z,0.00
2018-12-10T03:13:48.430Z,0.00
2018-12-10T03:14:48.615Z,0.00
2018-12-10T03:15:48.797Z,0.00
2018-12-10T03:16:48.980Z,0.00
2018-12-10T03:17:49.156Z,0.00
2018-12-10T03:18:49.339Z,0.00
2018-12-10T03:19:49.521Z,0.00
2018-12-10T03:20:49.696Z,0.00
2018-12-10T03:21:49.874Z,0.00
2018-12-10T03:22:50.059Z,0.00
2018-12-10T03:23:50.238Z,0.00
2018-12-10T03:24:50.428Z,0.00
2018-12-10T03:25:50.613Z,0.00
2018-12-10T03:26:50.794Z,0.00
2018-12-10T03:27:50.987Z,0.00
2018-12-10T03:28:51.164Z,0.00
2018-12-10T03:29:51.360Z,0.00
2018-12-10T03:30:51.546Z,0.00
2018-12-10T03:31:51.728Z,0.00
2018-12-10T03:32:52.062Z,0.00
2018-12-10T03:33:52.086Z,0.00
2018-12-10T03:34:52.267Z,0.00
2018-12-10T03:35:52.451Z,0.00
2018-12-10T03:36:52.636Z,0.00
2018-12-10T03:37:52.815Z,0.00
2018-12-10T03:38:53.009Z,0.00
2018-12-10T03:39:53.184Z,0.00
2018-12-10T03:40:53.362Z,0.00
2018-12-10T03:41:53.543Z,0.00
2018-12-10T03:42:53.729Z,0.00
2018-12-10T03:43:53.911Z,0.00
2018-12-10T03:44:54.093Z,0.00
2018-12-10T03:45:54.271Z,0.00
2018-12-10T03:46:54.456Z,0.00
2018-12-10T03:47:54.636Z,0.00
2018-12-10T03:48:54.819Z,0.00
2018-12-10T03:49:55.002Z,0.00
2018-12-10T03:50:55.183Z,0.00
2018-12-10T03:51:55.366Z,0.00
2018-12-10T03:52:55.541Z,0.00
2018-12-10T03:53:55.726Z,0.00
2018-12-10T03:54:55.918Z,0.00
2018-12-10T03:55:56.092Z,0.00
2018-12-10T03:56:56.274Z,0.00
2018-12-10T03:57:56.456Z,0.00
2018-12-10T03:58:56.640Z,0.00
2018-12-10T03:59:56.826Z,0.00
2018-12-10T04:00:57.021Z,0.00
2018-12-10T04:01:57.185Z,0.00
2018-12-10T04:02:57.381Z,0.00
2018-12-10T04:03:57.626Z,0.00
2018-12-10T04:04:57.732Z,0.00
2018-12-10T04:05:57.918Z,0.00
2018-12-10T04:06:58.099Z,0.00
2018-12-10T04:07:58.283Z,0.00
2018-12-10T04:08:58.459Z,0.00
2018-12-10T04:09:58.656Z,0.00
2018-12-10T04:10:58.833Z,0.00
2018-12-10T04:11:59.014Z,0.00
2018-12-10T04:12:59.196Z,0.00
2018-12-10T04:13:59.383Z,0.00
2018-12-10T04:14:59.561Z,0.00
2018-12-10T04:15:59.749Z,0.00
2018-12-10T04:16:59.931Z,0.00
2018-12-10T04:18:00.108Z,0.00
2018-12-10T04:19:00.307Z,0.00
2018-12-10T04:20:00.488Z,0.00
2018-12-10T04:21:00.657Z,0.00
2018-12-10T04:22:00.843Z,0.00
2018-12-10T04:23:01.025Z,0.00
2018-12-10T04:24:08.354Z,0.00
2018-12-10T04:25:01.431Z,0.00
2018-12-10T04:26:01.606Z,0.00
2018-12-10T04:27:01.786Z,0.00
2018-12-10T04:28:01.974Z,0.00
2018-12-10T04:29:02.159Z,0.00
2018-12-10T04:30:02.343Z,0.00
2018-12-10T04:31:02.517Z,0.00
2018-12-10T04:32:02.713Z,0.00
2018-12-10T04:33:02.887Z,0.00
2018-12-10T04:34:03.088Z,0.00
2018-12-10T04:35:03.269Z,0.00
2018-12-10T04:36:03.449Z,0.00
2018-12-10T04:37:03.623Z,0.00
2018-12-10T04:38:03.794Z,0.00
2018-12-10T04:39:03.980Z,0.00
2018-12-10T04:40:04.152Z,0.00
2018-12-10T04:41:04.325Z,0.00
2018-12-10T04:42:04.514Z,0.00
2018-12-10T04:43:04.698Z,0.00
2018-12-10T04:44:04.884Z,0.00
2018-12-10T04:45:05.058Z,0.00
2018-12-10T04:46:05.245Z,0.00
2018-12-10T04:47:05.419Z,0.00
2018-12-10T04:48:05.596Z,0.00
2018-12-10T04:49:05.776Z,0.00
2018-12-10T04:50:05.954Z,0.00
2018-12-10T04:51:06.137Z,0.00
2018-12-10T04:52:06.323Z,0.00
2018-12-10T04:53:06.505Z,0.00
2018-12-10T04:54:06.693Z,0.00
2018-12-10T04:55:06.890Z,0.00
2018-12-10T04:56:07.122Z,0.00
2018-12-10T04:57:07.283Z,0.00
2018-12-10T04:58:07.448Z,0.00
2018-12-10T04:59:07.637Z,0.00
2018-12-10T05:00:08.506Z,0.00
2018-12-10T05:01:07.998Z,0.00
2018-12-10T05:02:08.168Z,0.00
2018-12-10T05:03:08.349Z,0.00
2018-12-10T05:04:08.530Z,0.00
2018-12-10T05:05:08.709Z,0.00
2018-12-10T05:06:08.893Z,0.00
2018-12-10T05:07:09.085Z,0.00
2018-12-10T05:08:09.264Z,0.00
2018-12-10T05:09:09.446Z,0.00
2018-12-10T05:10:09.636Z,0.00
2018-12-10T05:11:09.815Z,0.00
2018-12-10T05:12:10.002Z,0.00
2018-12-10T05:13:10.180Z,0.00
2018-12-10T05:14:10.365Z,0.00
2018-12-10T05:15:10.552Z,0.00
2018-12-10T05:16:10.723Z,0.00
2018-12-10T05:17:10.902Z,0.00
2018-12-10T05:18:11.079Z,0.00
2018-12-10T05:19:11.252Z,0.00
2018-12-10T05:20:11.441Z,0.00
2018-12-10T05:21:13.519Z,0.00
2018-12-10T05:22:11.795Z,0.00
2018-12-10T05:23:11.984Z,0.00
2018-12-10T05:24:12.167Z,0.00
2018-12-10T05:25:12.339Z,0.00
2018-12-10T05:26:12.535Z,0.00
2018-12-10T05:27:12.716Z,0.00
2018-12-10T05:28:12.893Z,0.00
2018-12-10T05:29:13.091Z,0.00
2018-12-10T05:30:13.271Z,0.00
2018-12-10T05:31:13.452Z,0.00
2018-12-10T05:32:13.635Z,0.00
2018-12-10T05:33:13.810Z,0.00
2018-12-10T05:34:13.996Z,0.00
2018-12-10T05:35:14.166Z,0.00
2018-12-10T05:36:14.345Z,0.00
2018-12-10T05:37:14.529Z,0.00
2018-12-10T05:38:14.710Z,0.00
2018-12-10T05:39:14.908Z,0.00
2018-12-10T05:40:15.079Z,0.00
2018-12-10T05:41:15.259Z,0.00
2018-12-10T05:42:15.444Z,0.00
2018-12-10T05:43:15.635Z,0.00
2018-12-10T05:44:15.809Z,0.00
2018-12-10T05:45:15.985Z,0.00
2018-12-10T05:46:16.160Z,0.00
2018-12-10T05:47:16.338Z,0.00
2018-12-10T05:48:16.522Z,0.00
2018-12-10T05:49:16.702Z,0.00
2018-12-10T05:50:16.885Z,0.00
2018-12-10T05:51:17.073Z,0.00
2018-12-10T05:52:17.256Z,0.00
2018-12-10T05:53:17.441Z,0.00
2018-12-10T05:54:17.621Z,0.00
2018-12-10T05:55:17.803Z,0.00
2018-12-10T05:56:17.978Z,0.00
2018-12-10T05:57:18.152Z,0.00
2018-12-10T05:58:18.331Z,0.00
2018-12-10T05:59:18.515Z,0.00
2018-12-10T06:00:18.693Z,0.00
2018-12-10T06:01:18.875Z,0.00
2018-12-10T06:02:19.058Z,0.00
2018-12-10T06:03:20.115Z,0.00
2018-12-10T06:04:19.430Z,0.00
2018-12-10T06:05:19.614Z,0.00
2018-12-10T06:06:19.788Z,0.00
2018-12-10T06:07:19.980Z,0.00
2018-12-10T06:08:20.147Z,0.00
2018-12-10T06:09:20.322Z,0.00
2018-12-10T06:10:20.506Z,0.00
2018-12-10T06:11:20.686Z,0.00
2018-12-10T06:12:20.868Z,0.00
2018-12-10T06:13:21.062Z,0.00
2018-12-10T06:14:21.219Z,0.00
2018-12-10T06:15:21.407Z,0.00
2018-12-10T06:16:21.589Z,0.00
2018-12-10T06:17:21.767Z,0.00
2018-12-10T06:18:21.952Z,0.00
2018-12-10T06:19:22.129Z,0.00
2018-12-10T06:20:22.318Z,0.00
2018-12-10T06:21:22.500Z,0.00
2018-12-10T06:22:22.682Z,0.00
2018-12-10T06:23:22.855Z,0.00
2018-12-10T06:24:23.040Z,0.00
2018-12-10T06:25:23.217Z,0.00
2018-12-10T06:26:23.414Z,0.00
2018-12-10T06:27:24.336Z,0.00
2018-12-10T06:28:23.781Z,0.00
2018-12-10T06:29:23.959Z,0.00
2018-12-10T06:30:24.140Z,0.00
2018-12-10T06:31:24.321Z,0.00
2018-12-10T06:32:24.509Z,0.00
2018-12-10T06:33:24.690Z,0.00
2018-12-10T06:34:24.873Z,0.00
2018-12-10T06:35:25.051Z,0.00
2018-12-10T06:36:25.238Z,0.00
2018-12-10T06:37:25.416Z,4.00
2018-12-10T06:38:25.605Z,0.00
2018-12-10T06:39:25.772Z,4.00
2018-12-10T06:40:25.956Z,4.00
2018-12-10T06:41:26.141Z,4.00
2018-12-10T06:42:26.317Z,4.00
2018-12-10T06:43:26.498Z,8.00
2018-12-10T06:44:26.679Z,8.00
2018-12-10T06:45:26.870Z,8.00
2018-12-10T06:46:27.051Z,8.00
2018-12-10T06:47:27.232Z,8.00
2018-12-10T06:48:27.412Z,8.00
2018-12-10T06:49:27.591Z,8.00
2018-12-10T06:50:27.774Z,8.00
2018-12-10T06:51:27.962Z,12.00
2018-12-10T06:52:28.139Z,12.00
2018-12-10T06:53:28.325Z,16.00
2018-12-10T06:54:28.506Z,16.00
2018-12-10T06:55:28.687Z,20.00
2018-12-10T06:56:28.866Z,32.00
2018-12-10T06:57:29.072Z,48.00
2018-12-10T06:58:29.233Z,72.00
2018-12-10T06:59:29.416Z,104.00
2018-12-10T07:00:29.597Z,140.00
2018-12-10T07:01:29.774Z,172.00
2018-12-10T07:02:29.959Z,208.00
2018-12-10T07:03:30.144Z,236.00
2018-12-10T07:04:30.342Z,268.00
2018-12-10T07:05:30.508Z,280.00
2018-12-10T07:06:30.690Z,300.00
2018-12-10T07:07:30.868Z,324.00
2018-12-10T07:08:31.050Z,356.00
2018-12-10T07:09:31.232Z,368.00
2018-12-10T07:10:31.417Z,356.00
2018-12-10T07:11:31.594Z,336.00
2018-12-10T07:12:31.777Z,340.00
2018-12-10T07:13:31.958Z,344.00
2018-12-10T07:14:32.137Z,320.00
2018-12-10T07:15:32.319Z,284.00
2018-12-10T07:16:32.501Z,236.00
2018-12-10T07:17:32.685Z,192.00
2018-12-10T07:18:32.868Z,168.00
2018-12-10T07:19:33.048Z,160.00
2018-12-10T07:20:33.233Z,172.00
2018-12-10T07:21:33.421Z,208.00
2018-12-10T07:22:33.597Z,264.00
2018-12-10T07:23:33.778Z,256.00
2018-12-10T07:24:33.955Z,200.00
2018-12-10T07:25:34.137Z,180.00
2018-12-10T07:26:34.319Z,184.00
2018-12-10T07:27:34.538Z,216.00
2018-12-10T07:28:34.691Z,260.00
2018-12-10T07:29:34.866Z,352.00
2018-12-10T07:30:41.381Z,496.00
2018-12-10T07:31:35.233Z,664.00
2018-12-10T07:32:35.413Z,808.00
2018-12-10T07:33:35.594Z,848.00
2018-12-10T07:34:35.778Z,856.00
2018-12-10T07:35:35.964Z,880.00
2018-12-10T07:36:36.140Z,824.00
2018-12-10T07:37:36.319Z,728.00
2018-12-10T07:38:36.493Z,708.00
2018-12-10T07:39:36.673Z,724.00
2018-12-10T07:40:36.853Z,776.00
2018-12-10T07:41:37.031Z,876.00
2018-12-10T07:42:37.213Z,1032.00
2018-12-10T07:43:37.401Z,1136.00
2018-12-10T07:44:37.577Z,1104.00
2018-12-10T07:45:37.760Z,1072.00
2018-12-10T07:46:37.947Z,1044.00
2018-12-10T07:47:38.127Z,1084.00
2018-12-10T07:48:38.311Z,1132.00
2018-12-10T07:49:38.504Z,1204.00
2018-12-10T07:50:38.685Z,1328.00
2018-12-10T07:51:38.863Z,1596.00
2018-12-10T07:52:39.039Z,1828.00
2018-12-10T07:53:39.228Z,1928.00
2018-12-10T07:54:39.408Z,2156.00
2018-12-10T07:55:39.589Z,2216.00
2018-12-10T07:56:39.775Z,1976.00
2018-12-10T07:57:39.956Z,1868.00
2018-12-10T07:58:40.139Z,1968.00
2018-12-10T07:59:40.322Z,1940.00
2018-12-10T08:00:40.493Z,1984.00
2018-12-10T08:01:40.672Z,2156.00
2018-12-10T08:02:40.863Z,2060.00
2018-12-10T08:03:41.042Z,2132.00
2018-12-10T08:04:41.226Z,2124.00
2018-12-10T08:05:41.407Z,2320.00
2018-12-10T08:06:41.583Z,2704.00
2018-12-10T08:07:41.766Z,3644.00
2018-12-10T08:08:41.952Z,4364.00
2018-12-10T08:09:42.142Z,4404.00
2018-12-10T08:10:42.318Z,3836.00
2018-12-10T08:11:42.502Z,3120.00
2018-12-10T08:12:42.685Z,2496.00
2018-12-10T08:13:42.868Z,2008.00
2018-12-10T08:14:43.044Z,1792.00
2018-12-10T08:15:43.228Z,1648.00
2018-12-10T08:16:43.413Z,1588.00
2018-12-10T08:17:43.592Z,1580.00
2018-12-10T08:18:43.782Z,1500.00
2018-12-10T08:19:43.959Z,1560.00
2018-12-10T08:20:44.135Z,1688.00
2018-12-10T08:21:44.327Z,1612.00
2018-12-10T08:22:44.508Z,1324.00
2018-12-10T08:23:44.695Z,1224.00
2018-12-10T08:24:44.879Z,1468.00
2018-12-10T08:25:45.058Z,2136.00
2018-12-10T08:26:45.240Z,3432.00
2018-12-10T08:27:45.425Z,5716.00
2018-12-10T08:28:45.643Z,7800.00
2018-12-10T08:29:45.829Z,8564.00
2018-12-10T08:30:46.003Z,8744.00
2018-12-10T08:31:46.193Z,50016.00
2018-12-10T08:32:46.371Z,51712.00
2018-12-10T08:33:46.570Z,41248.00
2018-12-10T08:34:46.741Z,11216.00
2018-12-10T08:35:46.919Z,3980.00
2018-12-10T08:36:47.096Z,2924.00
2018-12-10T08:37:47.287Z,2792.00
2018-12-10T08:38:47.474Z,2504.00
2018-12-10T08:39:47.660Z,2652.00
2018-12-10T08:40:47.852Z,3224.00
2018-12-10T08:41:48.033Z,4124.00
2018-12-10T08:42:48.218Z,7752.00
2018-12-10T08:43:48.403Z,4744.00
2018-12-10T08:44:48.590Z,4372.00
2018-12-10T08:45:48.770Z,4116.00
2018-12-10T08:46:48.966Z,4820.00
2018-12-10T08:47:49.154Z,8100.00
2018-12-10T08:48:49.336Z,5844.00
2018-12-10T08:49:49.517Z,7272.00
2018-12-10T08:50:49.694Z,7652.00
2018-12-10T08:51:49.877Z,8804.00
2018-12-10T08:52:50.060Z,15360.00
2018-12-10T08:53:50.239Z,50496.00
2018-12-10T08:54:50.426Z,17344.00
2018-12-10T08:55:50.611Z,75360.00
2018-12-10T08:56:50.785Z,77952.00
2018-12-10T08:57:50.973Z,61920.00
2018-12-10T08:58:51.163Z,72672.00
2018-12-10T08:59:51.346Z,71616.00
2018-12-10T09:00:51.529Z,38784.00
2018-12-10T09:01:51.726Z,40224.00
2018-12-10T09:02:51.909Z,69728.00
2018-12-10T09:03:52.767Z,68928.00
2018-12-10T09:04:52.333Z,69888.00
2018-12-10T09:05:52.527Z,70016.00
2018-12-10T09:06:52.709Z,70336.00
2018-12-10T09:07:52.902Z,71040.00
2018-12-10T09:08:53.094Z,57248.00
2018-12-10T09:09:53.309Z,23552.00
2018-12-10T09:10:53.484Z,23808.00
2018-12-10T09:11:53.675Z,72480.00
2018-12-10T09:12:53.870Z,71552.00
2018-12-10T09:13:54.057Z,73632.00
2018-12-10T09:14:54.473Z,74272.00
2018-12-10T09:15:54.386Z,34688.00
2018-12-10T09:16:54.573Z,17440.00
2018-12-10T09:17:54.767Z,14752.00
2018-12-10T09:18:54.959Z,48992.00
2018-12-10T09:19:55.159Z,20992.00
2018-12-10T09:20:55.352Z,6312.00
2018-12-10T09:21:55.542Z,5104.00
2018-12-10T09:22:55.736Z,4484.00
2018-12-10T09:23:56.047Z,4024.00
2018-12-10T09:24:56.132Z,3632.00
2018-12-10T09:25:56.325Z,3136.00
2018-12-10T09:26:56.522Z,2664.00
2018-12-10T09:27:56.711Z,2148.00
2018-12-10T09:28:56.896Z,1852.00
2018-12-10T09:29:57.082Z,1844.00
2018-12-10T09:30:57.274Z,1740.00
2018-12-10T09:31:57.464Z,1612.00
2018-12-10T09:32:57.660Z,1516.00
2018-12-10T09:33:57.847Z,1788.00
2018-12-10T09:34:58.028Z,2552.00
2018-12-10T09:35:58.219Z,3508.00
2018-12-10T09:36:58.402Z,5068.00
2018-12-10T09:37:58.590Z,10108.00
2018-12-10T09:38:58.790Z,10196.00
2018-12-10T09:39:58.976Z,14600.00
2018-12-10T09:40:59.163Z,17280.00
2018-12-10T09:41:59.350Z,74688.00
2018-12-10T09:42:59.539Z,41792.00
2018-12-10T09:43:59.727Z,18144.00
2018-12-10T09:44:59.916Z,17952.00
2018-12-10T09:46:00.101Z,21600.00
2018-12-10T09:47:00.321Z,75008.00
2018-12-10T09:48:00.472Z,18656.00
2018-12-10T09:49:00.672Z,50720.00
2018-12-10T09:50:00.840Z,56544.00
2018-12-10T09:51:01.030Z,11492.00
2018-12-10T09:52:01.227Z,9092.00
2018-12-10T09:53:01.421Z,8588.00
2018-12-10T09:54:01.603Z,7444.00
2018-12-10T09:55:01.786Z,7276.00
2018-12-10T09:56:01.996Z,7796.00
2018-12-10T09:57:02.183Z,8516.00
2018-12-10T09:58:02.366Z,6832.00
2018-12-10T09:59:02.550Z,6540.00
2018-12-10T10:00:02.758Z,7272.00
2018-12-10T10:01:02.947Z,38144.00
2018-12-10T10:02:03.133Z,72896.00
2018-12-10T10:03:03.341Z,41856.00
2018-12-10T10:04:03.519Z,17984.00
2018-12-10T10:05:03.703Z,70144.00
2018-12-10T10:06:03.889Z,84416.00
2018-12-10T10:07:04.078Z,87808.00
2018-12-10T10:08:04.269Z,87136.00
2018-12-10T10:09:04.451Z,77248.00
2018-12-10T10:10:04.646Z,15232.00
2018-12-10T10:11:04.835Z,14044.00
2018-12-10T10:12:05.013Z,16544.00
2018-12-10T10:13:05.210Z,79488.00
2018-12-10T10:14:05.400Z,32288.00
2018-12-10T10:15:05.595Z,42336.00
2018-12-10T10:16:05.838Z,32832.00
2018-12-10T10:17:05.969Z,19616.00
2018-12-10T10:18:06.159Z,18816.00
2018-12-10T10:19:06.351Z,26464.00
2018-12-10T10:20:06.537Z,17472.00
2018-12-10T10:21:11.280Z,22080.00
2018-12-10T10:22:06.928Z,13848.00
2018-12-10T10:23:07.118Z,10828.00
2018-12-10T10:24:07.303Z,33824.00
2018-12-10T10:25:07.502Z,9840.00
2018-12-10T10:26:07.688Z,8304.00
2018-12-10T10:27:07.879Z,7672.00
2018-12-10T10:28:08.073Z,7084.00
2018-12-10T10:29:08.267Z,6924.00
2018-12-10T10:30:08.464Z,7896.00
2018-12-10T10:31:08.648Z,10152.00
2018-12-10T10:32:08.833Z,13548.00
2018-12-10T10:33:09.024Z,31744.00
2018-12-10T10:34:09.210Z,15424.00
2018-12-10T10:35:09.625Z,13768.00
2018-12-10T10:36:09.564Z,15904.00
2018-12-10T10:37:09.749Z,86560.00
2018-12-10T10:38:09.940Z,88672.00
2018-12-10T10:39:10.131Z,69056.00
2018-12-10T10:40:10.326Z,11864.00
2018-12-10T10:41:10.512Z,10104.00
2018-12-10T10:42:10.699Z,9860.00
2018-12-10T10:43:13.447Z,36352.00
2018-12-10T10:44:11.142Z,23936.00
2018-12-10T10:45:11.322Z,85856.00
2018-12-10T10:46:11.527Z,28608.00
2018-12-10T10:47:11.711Z,43264.00
2018-12-10T10:48:11.901Z,22144.00
2018-12-10T10:49:12.088Z,45184.00
2018-12-10T10:50:12.282Z,60672.00
2018-12-10T10:51:12.469Z,76224.00
2018-12-10T10:52:12.668Z,77600.00
2018-12-10T10:53:12.851Z,76608.00
2018-12-10T10:54:13.035Z,24736.00
2018-12-10T10:55:13.226Z,35968.00
2018-12-10T10:56:13.414Z,21152.00
2018-12-10T10:57:13.632Z,25824.00
2018-12-10T10:58:13.819Z,62720.00
2018-12-10T10:59:14.007Z,19552.00
2018-12-10T11:00:14.196Z,17344.00
2018-12-10T11:01:14.392Z,45984.00
2018-12-10T11:02:14.589Z,36064.00
2018-12-10T11:03:14.777Z,14060.00
2018-12-10T11:04:14.972Z,18336.00
2018-12-10T11:05:15.162Z,54784.00
2018-12-10T11:06:15.350Z,14672.00
2018-12-10T11:07:15.541Z,15272.00
2018-12-10T11:08:15.734Z,15128.00
2018-12-10T11:09:15.928Z,13928.00
2018-12-10T11:10:16.122Z,12484.00
2018-12-10T11:11:16.314Z,10508.00
2018-12-10T11:12:16.502Z,8792.00
2018-12-10T11:13:16.699Z,7948.00
2018-12-10T11:14:16.883Z,7696.00
2018-12-10T11:15:17.072Z,7508.00
2018-12-10T11:16:17.267Z,7208.00
2018-12-10T11:17:17.452Z,6964.00
2018-12-10T11:18:17.651Z,7284.00
2018-12-10T11:19:17.836Z,7980.00
2018-12-10T11:20:18.129Z,8012.00
2018-12-10T11:21:18.209Z,8788.00
2018-12-10T11:22:18.396Z,9300.00
2018-12-10T11:23:18.590Z,13324.00
2018-12-10T11:24:18.770Z,16448.00
2018-12-10T11:25:18.967Z,9268.00
2018-12-10T11:26:19.144Z,8380.00
2018-12-10T11:27:19.332Z,7972.00
2018-12-10T11:28:19.520Z,7124.00
2018-12-10T11:29:19.721Z,6068.00
2018-12-10T11:30:19.904Z,5288.00
2018-12-10T11:31:20.095Z,5104.00
2018-12-10T11:32:20.290Z,4804.00
2018-12-10T11:33:20.472Z,6252.00
2018-12-10T11:34:20.655Z,6348.00
2018-12-10T11:35:20.847Z,6548.00
2018-12-10T11:36:21.034Z,6556.00
2018-12-10T11:37:21.211Z,6636.00
2018-12-10T11:38:21.395Z,5556.00
2018-12-10T11:39:21.576Z,5464.00
2018-12-10T11:40:21.776Z,5824.00
2018-12-10T11:41:21.954Z,6420.00
2018-12-10T11:42:22.135Z,6464.00
2018-12-10T11:43:22.316Z,7340.00
2018-12-10T11:44:22.502Z,8468.00
2018-12-10T11:45:22.692Z,10464.00
2018-12-10T11:46:22.882Z,38016.00
2018-12-10T11:47:23.060Z,14148.00
2018-12-10T11:48:23.260Z,10612.00
2018-12-10T11:49:23.447Z,12508.00
2018-12-10T11:50:23.757Z,11072.00
2018-12-10T11:51:23.822Z,11140.00
2018-12-10T11:52:24.000Z,14900.00
2018-12-10T11:53:24.188Z,15732.00
2018-12-10T11:54:24.374Z,50656.00
2018-12-10T11:55:24.562Z,14412.00
2018-12-10T11:56:24.740Z,14160.00
2018-12-10T11:57:24.931Z,37184.00
2018-12-10T11:58:25.114Z,22912.00
2018-12-10T11:59:25.312Z,56384.00
2018-12-10T12:00:25.512Z,17952.00
2018-12-10T12:01:25.696Z,29920.00
2018-12-10T12:02:29.797Z,14064.00
2018-12-10T12:03:26.078Z,9268.00
2018-12-10T12:04:26.265Z,8424.00
2018-12-10T12:05:26.457Z,8528.00
2018-12-10T12:06:26.652Z,9348.00
2018-12-10T12:07:26.929Z,10536.00
2018-12-10T12:08:27.015Z,10380.00
2018-12-10T12:09:27.201Z,11184.00
2018-12-10T12:10:27.385Z,40128.00
2018-12-10T12:11:27.590Z,53312.00
2018-12-10T12:12:27.775Z,18400.00
2018-12-10T12:13:27.957Z,40448.00
2018-12-10T12:14:28.149Z,37440.00
2018-12-10T12:15:28.339Z,16256.00
2018-12-10T12:16:28.523Z,11248.00
2018-12-10T12:17:28.719Z,9700.00
2018-12-10T12:18:28.899Z,8496.00
2018-12-10T12:19:29.087Z,7356.00
2018-12-10T12:20:29.277Z,6028.00
2018-12-10T12:21:29.462Z,4724.00
2018-12-10T12:22:29.649Z,4348.00
2018-12-10T12:23:29.836Z,3892.00
2018-12-10T12:24:30.035Z,3468.00
2018-12-10T12:25:30.218Z,3440.00
2018-12-10T12:26:30.407Z,3316.00
2018-12-10T12:27:30.595Z,3388.00
2018-12-10T12:28:30.787Z,3492.00
2018-12-10T12:29:30.962Z,3384.00
2018-12-10T12:30:31.148Z,3216.00
2018-12-10T12:31:31.352Z,4012.00
2018-12-10T12:32:31.536Z,4992.00
2018-12-10T12:33:31.719Z,4696.00
2018-12-10T12:34:31.909Z,4180.00
2018-12-10T12:35:32.095Z,4036.00
2018-12-10T12:36:32.291Z,3860.00
2018-12-10T12:37:32.476Z,3768.00
2018-12-10T12:38:32.657Z,3748.00
2018-12-10T12:39:32.840Z,3436.00
2018-12-10T12:40:33.026Z,3344.00
2018-12-10T12:41:33.212Z,3412.00
2018-12-10T12:42:33.399Z,3328.00